A- A+ FrançaisEnglishEspañol中国

le plus proche LFCD Andernos-Les-BainsLFPO Paris-Orly LFBT Tarbes-Lourdes-PyrénéesLFDG Gaillac-Lisle-Sur-Tarn

manche à air

La météo aéronautique pour les pilotes, la préparation du vol avec les METAR (METeorological Aerodrome Report, message d'observation des conditions météorologiques pour l'aviation) et Les TAF (Terminal Aerodrome Forecast : message de prévision à court terme des conditions météorologiques pour l'aviation). Et les autres ressources comme les VAC (Visual Approch Chart) et les NOTAM (Notice To Airman) pour préprer les vols.

Aéroport Illulissat (Groenland) / OACI BGJN/ IATA JAV

L'altitude de l'aéroport Illulissat est de 29 m=95 ft. Il est situé à proximité de Ilulissat (Groenland). La météo générale à 5 jours est disponible pour Ilulissat situé à 3.4 km.

METAR de l'aéroport Illulissat - BGJN

BGJN 102050Z AUTO 10025KT 1100NDV -SN SCT080/// BKN095/// M21/M27 Q0989

Décodage du METAR de l'aéroport Illulissat (GL)

METAR émis par BGJN le vendredi 10 janvier 2020 à 20:50 heure TU. C'est un METAR généré automatiquement. Attention ce METAR est obsolète car il a été émis il y a 22 heure et 10 minutes.

La visibilité est de 1.1 km=0.7 sm.

La température est de -21°C=-6 °F et le point rosée est de -27°C=-17 °F . Ce qui correspond à 59% d'humidité relative.

Le QNH est de 989 hPa=29.21 inHg

Vent de 25 kt=46 km/h, orienté à 100°.

Nuages : Nuages épars à 8000 ft=2440 mètres. Couverture nuageuse fragmentée à 9500 ft=2900 mètres.

-SN

TAF de l'aéroport Illulissat - BGJN

BGJN 101418Z 1015/1021 10020KT 9999 DRSN FEW080 TEMPO 1015/1021 1000 BLSN BECMG 1018/1021 16018KT

BGJN 101418Z 1015/1021 10020KT 9999 DRSN quelques nuages à 080 temporairement 1015/1021 1000 BLSN devenant 1018/1021 16018KT

Aéroport à proximité de Illulissat

Météo générale à 5 jours à Ilulissat (3.4 km)BGAA Aéroport Aaisiaat (90 km)BGUQ Aéroport Uummannaq (177 km)BGSF Aéroport Kangerlussuaq (248 km)BGSS Aéroport Sisimiut (278 km)BGMQ Aéroport Maniitsoq (433 km)BGUK Aéroport Upernavik (435 km)

Vue aérienne de l'aéroport Illulissat

NOTAM de l'aéroport Illulissat

Les NOTAM sont fournis sans aucune garantie de leur actualité. Le pilote est le seul responsable de la vérification de sa validité avant de l'utiliser opérationnellement pour préparer un vol ou l'utiliser lors de sa navigation.

NOTAM (à partir du mardi 9 octobre 2001 à 17:00 jusqu'au jeudi 30 novembre 2006 à 00:00)

SWBG0110 BGJN 01100917
(SNOWTAM 0110
A) BGJN
B) 01100917 C) 07 F) 48/48/48 G) 7/7/7 H) 5/5/5 N) 48/GOOD
R) 48/GOOD
T) RWY CONTAMINATION 10 PCT 5MM COMPACTED SNOW AND 25 PCT 2MM
COMPACTED OR ROLLED SNOW - MEASURED FRICTION
COEFFICIENTS 75/75/75 TAP)
CREATED: 10 Jan 2020 09:44:00
SOURCE: EUECYIYN

Sources des données